sensor_id;sensor_type;location;lat;lon;timestamp;pressure;altitude;pressure_sealevel;temperature;humidity
44697;BME280;57264;47.480;19.354;2024-03-08T00:02:22;99336.16;;;3.53;87.13
44697;BME280;57264;47.480;19.354;2024-03-08T00:04:48;99340.44;;;3.49;87.20
44697;BME280;57264;47.480;19.354;2024-03-08T00:07:13;99334.44;;;3.49;87.05
44697;BME280;57264;47.480;19.354;2024-03-08T00:09:38;99337.88;;;3.49;86.77
44697;BME280;57264;47.480;19.354;2024-03-08T00:12:04;99325.88;;;3.47;86.64
44697;BME280;57264;47.480;19.354;2024-03-08T00:14:29;99333.59;;;3.45;86.06
44697;BME280;57264;47.480;19.354;2024-03-08T00:16:54;99330.16;;;3.46;85.67
44697;BME280;57264;47.480;19.354;2024-03-08T00:19:20;99337.88;;;3.46;85.70
44697;BME280;57264;47.480;19.354;2024-03-08T00:21:45;99325.91;;;3.45;85.18
44697;BME280;57264;47.480;19.354;2024-03-08T00:24:10;99334.47;;;3.42;85.84
44697;BME280;57264;47.480;19.354;2024-03-08T00:26:37;99337.00;;;3.44;85.04
44697;BME280;57264;47.480;19.354;2024-03-08T00:29:02;99330.19;;;3.44;84.46
44697;BME280;57264;47.480;19.354;2024-03-08T00:31:28;99330.19;;;3.44;84.57
44697;BME280;57264;47.480;19.354;2024-03-08T00:33:56;99326.75;;;3.44;84.68
44697;BME280;57264;47.480;19.354;2024-03-08T00:36:22;99326.75;;;3.42;84.64
44697;BME280;57264;47.480;19.354;2024-03-08T00:38:47;99325.03;;;3.40;84.21
44697;BME280;57264;47.480;19.354;2024-03-08T00:41:12;99323.31;;;3.40;85.18
44697;BME280;57264;47.480;19.354;2024-03-08T00:43:38;99321.63;;;3.41;84.80
44697;BME280;57264;47.480;19.354;2024-03-08T00:46:03;99323.34;;;3.36;85.15
44697;BME280;57264;47.480;19.354;2024-03-08T00:48:28;99320.78;;;3.34;85.27
44697;BME280;57264;47.480;19.354;2024-03-08T00:50:54;99313.09;;;3.33;84.94
44697;BME280;57264;47.480;19.354;2024-03-08T00:53:19;99318.19;;;3.36;85.55
44697;BME280;57264;47.480;19.354;2024-03-08T00:55:44;99327.63;;;3.34;85.62
44697;BME280;57264;47.480;19.354;2024-03-08T00:58:12;99319.91;;;3.32;84.96
44697;BME280;57264;47.480;19.354;2024-03-08T01:00:37;99321.66;;;3.30;85.52
44697;BME280;57264;47.480;19.354;2024-03-08T01:03:04;99323.38;;;3.33;85.82
44697;BME280;57264;47.480;19.354;2024-03-08T01:05:29;99319.09;;;3.30;85.44
44697;BME280;57264;47.480;19.354;2024-03-08T01:07:55;99323.34;;;3.28;85.39
44697;BME280;57264;47.480;19.354;2024-03-08T01:10:20;99308.81;;;3.23;84.95
44697;BME280;57264;47.480;19.354;2024-03-08T01:12:45;99312.22;;;3.25;85.61
44697;BME280;57264;47.480;19.354;2024-03-08T01:15:11;99310.53;;;3.20;85.11
44697;BME280;57264;47.480;19.354;2024-03-08T01:17:36;99315.66;;;3.20;85.38
44697;BME280;57264;47.480;19.354;2024-03-08T01:20:02;99312.25;;;3.20;85.30
44697;BME280;57264;47.480;19.354;2024-03-08T01:22:28;99314.81;;;3.20;85.71
44697;BME280;57264;47.480;19.354;2024-03-08T01:24:55;99312.25;;;3.18;84.81
44697;BME280;57264;47.480;19.354;2024-03-08T01:27:20;99318.25;;;3.16;85.31
44697;BME280;57264;47.480;19.354;2024-03-08T01:29:45;99311.41;;;3.16;85.26
44697;BME280;57264;47.480;19.354;2024-03-08T01:32:11;99313.13;;;3.14;85.63
44697;BME280;57264;47.480;19.354;2024-03-08T01:34:37;99305.44;;;3.13;85.33
44697;BME280;57264;47.480;19.354;2024-03-08T01:37:02;99310.56;;;3.14;85.28
44697;BME280;57264;47.480;19.354;2024-03-08T01:39:27;99313.13;;;3.13;86.34
44697;BME280;57264;47.480;19.354;2024-03-08T01:41:53;99308.00;;;3.11;85.90
44697;BME280;57264;47.480;19.354;2024-03-08T01:44:19;99308.00;;;3.11;86.14
44697;BME280;57264;47.480;19.354;2024-03-08T01:46:44;99306.28;;;3.09;86.64
44697;BME280;57264;47.480;19.354;2024-03-08T01:49:10;99310.56;;;3.10;86.31
44697;BME280;57264;47.480;19.354;2024-03-08T01:51:36;99308.84;;;3.09;86.73
44697;BME280;57264;47.480;19.354;2024-03-08T01:54:03;99308.00;;;3.08;86.41
44697;BME280;57264;47.480;19.354;2024-03-08T01:56:29;99306.28;;;3.04;86.43
44697;BME280;57264;47.480;19.354;2024-03-08T01:58:57;99302.00;;;3.05;86.77
44697;BME280;57264;47.480;19.354;2024-03-08T02:01:22;99314.00;;;3.06;86.47
44697;BME280;57264;47.480;19.354;2024-03-08T02:03:49;99309.72;;;3.06;86.29
44697;BME280;57264;47.480;19.354;2024-03-08T02:06:14;99302.88;;;3.05;86.59
44697;BME280;57264;47.480;19.354;2024-03-08T02:08:41;99299.47;;;3.02;85.92
44697;BME280;57264;47.480;19.354;2024-03-08T02:11:08;99298.59;;;3.03;86.15
44697;BME280;57264;47.480;19.354;2024-03-08T02:13:34;99308.00;;;3.04;85.90
44697;BME280;57264;47.480;19.354;2024-03-08T02:15:59;99302.88;;;2.96;86.21
44697;BME280;57264;47.480;19.354;2024-03-08T02:18:25;99306.31;;;2.98;86.48
44697;BME280;57264;47.480;19.354;2024-03-08T02:20:51;99302.03;;;2.97;86.85
44697;BME280;57264;47.480;19.354;2024-03-08T02:23:32;99305.47;;;2.98;87.10
44697;BME280;57264;47.480;19.354;2024-03-08T02:25:58;99315.72;;;2.94;86.16
44697;BME280;57264;47.480;19.354;2024-03-08T02:28:23;99307.16;;;2.92;86.30
44697;BME280;57264;47.480;19.354;2024-03-08T02:30:50;99306.31;;;2.92;86.39
44697;BME280;57264;47.480;19.354;2024-03-08T02:33:16;99308.00;;;2.93;86.53
44697;BME280;57264;47.480;19.354;2024-03-08T02:35:42;99305.44;;;2.91;86.29
44697;BME280;57264;47.480;19.354;2024-03-08T02:38:10;99304.59;;;2.92;86.31
44697;BME280;57264;47.480;19.354;2024-03-08T02:40:36;99310.59;;;2.91;86.89
44697;BME280;57264;47.480;19.354;2024-03-08T02:43:01;99302.06;;;2.89;86.66
44697;BME280;57264;47.480;19.354;2024-03-08T02:45:26;99302.91;;;2.90;86.34
44697;BME280;57264;47.480;19.354;2024-03-08T02:47:52;99306.31;;;2.86;86.86
44697;BME280;57264;47.480;19.354;2024-03-08T02:50:17;99302.91;;;2.85;86.99
44697;BME280;57264;47.480;19.354;2024-03-08T02:52:42;99308.03;;;2.84;87.01
44697;BME280;57264;47.480;19.354;2024-03-08T02:55:08;99308.03;;;2.82;86.77
44697;BME280;57264;47.480;19.354;2024-03-08T02:57:35;99308.91;;;2.81;87.24
44697;BME280;57264;47.480;19.354;2024-03-08T03:00:02;99309.75;;;2.79;86.81
44697;BME280;57264;47.480;19.354;2024-03-08T03:02:27;99307.19;;;2.79;86.51
44697;BME280;57264;47.480;19.354;2024-03-08T03:05:02;99312.28;;;2.77;86.50
44697;BME280;57264;47.480;19.354;2024-03-08T03:07:34;99314.84;;;2.77;86.93
44697;BME280;57264;47.480;19.354;2024-03-08T03:09:59;99316.56;;;2.77;86.84
44697;BME280;57264;47.480;19.354;2024-03-08T03:12:28;99314.88;;;2.76;86.95
44697;BME280;57264;47.480;19.354;2024-03-08T03:14:53;99311.44;;;2.75;87.05
44697;BME280;57264;47.480;19.354;2024-03-08T03:17:18;99316.59;;;2.75;87.21
44697;BME280;57264;47.480;19.354;2024-03-08T03:19:45;99315.72;;;2.73;87.00
44697;BME280;57264;47.480;19.354;2024-03-08T03:22:11;99313.16;;;2.73;86.79
44697;BME280;57264;47.480;19.354;2024-03-08T03:24:37;99319.13;;;2.72;87.16
44697;BME280;57264;47.480;19.354;2024-03-08T03:27:06;99316.59;;;2.70;86.91
44697;BME280;57264;47.480;19.354;2024-03-08T03:29:39;99312.31;;;2.69;87.20
44697;BME280;57264;47.480;19.354;2024-03-08T03:32:05;99312.31;;;2.71;87.15
44697;BME280;57264;47.480;19.354;2024-03-08T03:34:32;99316.59;;;2.67;87.09
44697;BME280;57264;47.480;19.354;2024-03-08T03:36:58;99317.44;;;2.63;87.28
44697;BME280;57264;47.480;19.354;2024-03-08T03:39:23;99318.31;;;2.65;87.42
44697;BME280;57264;47.480;19.354;2024-03-08T03:41:48;99314.03;;;2.61;87.16
44697;BME280;57264;47.480;19.354;2024-03-08T03:44:17;99316.59;;;2.63;87.22
44697;BME280;57264;47.480;19.354;2024-03-08T03:46:43;99315.72;;;2.64;87.63
44697;BME280;57264;47.480;19.354;2024-03-08T03:49:11;99318.28;;;2.59;87.61
44697;BME280;57264;47.480;19.354;2024-03-08T03:51:36;99324.28;;;2.58;87.62
44697;BME280;57264;47.480;19.354;2024-03-08T03:54:01;99314.84;;;2.57;88.01
44697;BME280;57264;47.480;19.354;2024-03-08T03:56:28;99317.41;;;2.57;87.63
44697;BME280;57264;47.480;19.354;2024-03-08T03:58:54;99314.00;;;2.55;87.92
44697;BME280;57264;47.480;19.354;2024-03-08T04:01:19;99320.00;;;2.54;87.96
44697;BME280;57264;47.480;19.354;2024-03-08T04:03:44;99319.97;;;2.53;88.22
44697;BME280;57264;47.480;19.354;2024-03-08T04:06:10;99323.41;;;2.52;88.31
44697;BME280;57264;47.480;19.354;2024-03-08T04:08:35;99321.69;;;2.49;88.60
44697;BME280;57264;47.480;19.354;2024-03-08T04:11:01;99328.56;;;2.50;88.81
44697;BME280;57264;47.480;19.354;2024-03-08T04:13:26;99326.81;;;2.49;88.59
44697;BME280;57264;47.480;19.354;2024-03-08T04:15:51;99323.41;;;2.49;88.41
44697;BME280;57264;47.480;19.354;2024-03-08T04:18:17;99317.41;;;2.45;88.57
44697;BME280;57264;47.480;19.354;2024-03-08T04:20:43;99325.13;;;2.43;88.44
44697;BME280;57264;47.480;19.354;2024-03-08T04:23:08;99324.25;;;2.43;88.18
44697;BME280;57264;47.480;19.354;2024-03-08T04:25:34;99325.97;;;2.44;88.52
44697;BME280;57264;47.480;19.354;2024-03-08T04:27:59;99325.97;;;2.42;88.55
44697;BME280;57264;47.480;19.354;2024-03-08T04:30:24;99331.09;;;2.42;88.65
44697;BME280;57264;47.480;19.354;2024-03-08T04:32:50;99335.34;;;2.45;88.23
44697;BME280;57264;47.480;19.354;2024-03-08T04:35:15;99327.69;;;2.43;88.51
44697;BME280;57264;47.480;19.354;2024-03-08T04:37:41;99339.63;;;2.44;88.21
44697;BME280;57264;47.480;19.354;2024-03-08T04:40:06;99332.81;;;2.59;88.95
44697;BME280;57264;47.480;19.354;2024-03-08T04:42:32;99342.22;;;2.51;88.11
44697;BME280;57264;47.480;19.354;2024-03-08T04:44:58;99337.94;;;2.48;88.05
44697;BME280;57264;47.480;19.354;2024-03-08T04:47:23;99337.91;;;2.45;88.44
44697;BME280;57264;47.480;19.354;2024-03-08T04:49:48;99341.34;;;2.44;88.21
44697;BME280;57264;47.480;19.354;2024-03-08T04:52:15;99342.22;;;2.43;88.46
44697;BME280;57264;47.480;19.354;2024-03-08T04:54:40;99347.34;;;2.43;88.37
44697;BME280;57264;47.480;19.354;2024-03-08T04:57:06;99343.91;;;2.44;88.10
44697;BME280;57264;47.480;19.354;2024-03-08T04:59:32;99348.19;;;2.42;88.35
44697;BME280;57264;47.480;19.354;2024-03-08T05:01:57;99346.47;;;2.41;88.50
44697;BME280;57264;47.480;19.354;2024-03-08T05:04:23;99343.91;;;2.41;88.18
44697;BME280;57264;47.480;19.354;2024-03-08T05:06:48;99343.91;;;2.42;88.14
44697;BME280;57264;47.480;19.354;2024-03-08T05:09:14;99343.94;;;2.45;88.73
44697;BME280;57264;47.480;19.354;2024-03-08T05:11:40;99344.78;;;2.43;88.16
44697;BME280;57264;47.480;19.354;2024-03-08T05:14:06;99346.47;;;2.42;88.37
44697;BME280;57264;47.480;19.354;2024-03-08T05:16:31;99347.31;;;2.41;88.45
44697;BME280;57264;47.480;19.354;2024-03-08T05:18:57;99343.06;;;2.39;88.53
44697;BME280;57264;47.480;19.354;2024-03-08T05:21:22;99349.88;;;2.40;88.68
44697;BME280;57264;47.480;19.354;2024-03-08T05:23:48;99341.34;;;2.41;88.65
44697;BME280;57264;47.480;19.354;2024-03-08T05:26:15;99346.47;;;2.41;88.72
44697;BME280;57264;47.480;19.354;2024-03-08T05:28:41;99349.03;;;2.41;88.57
44697;BME280;57264;47.480;19.354;2024-03-08T05:31:06;99358.44;;;2.45;88.55
44697;BME280;57264;47.480;19.354;2024-03-08T05:33:32;99354.16;;;2.44;88.37
44697;BME280;57264;47.480;19.354;2024-03-08T05:35:59;99355.03;;;2.46;88.66
44697;BME280;57264;47.480;19.354;2024-03-08T05:38:25;99358.44;;;2.46;88.44
44697;BME280;57264;47.480;19.354;2024-03-08T05:40:51;99362.72;;;2.49;88.59
44697;BME280;57264;47.480;19.354;2024-03-08T05:43:16;99370.44;;;2.54;88.42
44697;BME280;57264;47.480;19.354;2024-03-08T05:45:44;99368.72;;;2.56;88.40
44697;BME280;57264;47.480;19.354;2024-03-08T05:48:10;99370.44;;;2.60;88.42
44697;BME280;57264;47.480;19.354;2024-03-08T05:50:37;99376.44;;;2.66;88.34
44697;BME280;57264;47.480;19.354;2024-03-08T05:53:03;99373.84;;;2.72;88.07
44697;BME280;57264;47.480;19.354;2024-03-08T05:55:31;99380.72;;;2.75;87.83
44697;BME280;57264;47.480;19.354;2024-03-08T05:58:00;99378.13;;;2.80;87.56
44697;BME280;57264;47.480;19.354;2024-03-08T06:00:26;99381.56;;;2.82;87.50
44697;BME280;57264;47.480;19.354;2024-03-08T06:02:51;99386.69;;;2.79;87.33
44697;BME280;57264;47.480;19.354;2024-03-08T06:05:16;99384.13;;;2.85;87.51
44697;BME280;57264;47.480;19.354;2024-03-08T06:07:42;99391.84;;;2.86;87.22
44697;BME280;57264;47.480;19.354;2024-03-08T06:10:08;99385.00;;;2.87;87.52
44697;BME280;57264;47.480;19.354;2024-03-08T06:12:35;99390.97;;;2.86;87.56
44697;BME280;57264;47.480;19.354;2024-03-08T06:15:05;99388.41;;;2.87;87.58
44697;BME280;57264;47.480;19.354;2024-03-08T06:17:31;99387.56;;;2.90;87.66
44697;BME280;57264;47.480;19.354;2024-03-08T06:19:56;99393.53;;;2.87;87.11
44697;BME280;57264;47.480;19.354;2024-03-08T06:22:21;99396.94;;;2.92;87.42
44697;BME280;57264;47.480;19.354;2024-03-08T06:24:47;99394.41;;;2.94;87.60
44697;BME280;57264;47.480;19.354;2024-03-08T06:27:12;99400.38;;;2.93;87.30
44697;BME280;57264;47.480;19.354;2024-03-08T06:29:39;99395.25;;;2.94;87.10
44697;BME280;57264;47.480;19.354;2024-03-08T06:32:04;99397.84;;;2.98;87.59
44697;BME280;57264;47.480;19.354;2024-03-08T06:34:32;99395.25;;;2.99;87.52
44697;BME280;57264;47.480;19.354;2024-03-08T06:37:00;99397.81;;;2.96;87.61
44697;BME280;57264;47.480;19.354;2024-03-08T06:39:26;99397.81;;;3.01;87.44
44697;BME280;57264;47.480;19.354;2024-03-08T06:41:52;99402.13;;;2.97;86.99
44697;BME280;57264;47.480;19.354;2024-03-08T06:44:17;99400.41;;;2.98;87.12
44697;BME280;57264;47.480;19.354;2024-03-08T06:46:42;99400.38;;;2.96;87.03
44697;BME280;57264;47.480;19.354;2024-03-08T06:49:08;99405.53;;;3.07;87.10
44697;BME280;57264;47.480;19.354;2024-03-08T06:51:35;99394.38;;;3.05;87.33
44697;BME280;57264;47.480;19.354;2024-03-08T06:54:01;99402.94;;;3.04;87.17
44697;BME280;57264;47.480;19.354;2024-03-08T06:56:26;99408.09;;;3.07;87.07
44697;BME280;57264;47.480;19.354;2024-03-08T06:58:52;99406.38;;;3.21;86.76
44697;BME280;57264;47.480;19.354;2024-03-08T07:01:17;99410.66;;;3.33;86.82
44697;BME280;57264;47.480;19.354;2024-03-08T07:03:43;99412.34;;;3.32;87.11
44697;BME280;57264;47.480;19.354;2024-03-08T07:06:12;99406.34;;;3.32;86.61
44697;BME280;57264;47.480;19.354;2024-03-08T07:08:39;99411.50;;;3.30;86.46
44697;BME280;57264;47.480;19.354;2024-03-08T07:11:04;99408.94;;;3.33;86.63
44697;BME280;57264;47.480;19.354;2024-03-08T07:13:30;99412.38;;;3.34;86.75
44697;BME280;57264;47.480;19.354;2024-03-08T07:15:55;99412.34;;;3.32;86.85
44697;BME280;57264;47.480;19.354;2024-03-08T07:18:21;99417.47;;;3.35;86.75
44697;BME280;57264;47.480;19.354;2024-03-08T07:20:47;99406.38;;;3.33;86.71
44697;BME280;57264;47.480;19.354;2024-03-08T07:23:12;99410.63;;;3.39;87.21
44697;BME280;57264;47.480;19.354;2024-03-08T07:25:57;99415.78;;;3.37;87.24
44697;BME280;57264;47.480;19.354;2024-03-08T07:28:23;99409.78;;;3.40;87.06
44697;BME280;57264;47.480;19.354;2024-03-08T07:30:48;99414.91;;;3.43;86.88
44697;BME280;57264;47.480;19.354;2024-03-08T07:33:14;99423.44;;;3.59;87.31
44697;BME280;57264;47.480;19.354;2024-03-08T07:35:39;99416.59;;;3.55;86.64
44697;BME280;57264;47.480;19.354;2024-03-08T07:38:08;99425.19;;;3.54;86.63
44697;BME280;57264;47.480;19.354;2024-03-08T07:40:35;99423.47;;;3.57;86.47
44697;BME280;57264;47.480;19.354;2024-03-08T07:43:00;99425.13;;;3.70;87.06
44697;BME280;57264;47.480;19.354;2024-03-08T07:45:26;99425.13;;;3.74;86.88
44697;BME280;57264;47.480;19.354;2024-03-08T07:47:51;99425.09;;;3.80;86.80
44697;BME280;57264;47.480;19.354;2024-03-08T07:50:18;99424.28;;;3.78;86.95
44697;BME280;57264;47.480;19.354;2024-03-08T07:52:44;99432.81;;;3.84;86.67
44697;BME280;57264;47.480;19.354;2024-03-08T07:55:10;99430.19;;;3.98;86.86
44697;BME280;57264;47.480;19.354;2024-03-08T07:57:35;99424.09;;;4.24;86.87
44697;BME280;57264;47.480;19.354;2024-03-08T08:00:03;99428.41;;;4.28;86.49
44697;BME280;57264;47.480;19.354;2024-03-08T08:02:32;99428.47;;;4.09;86.27
44697;BME280;57264;47.480;19.354;2024-03-08T08:04:57;99430.16;;;4.10;86.57
44697;BME280;57264;47.480;19.354;2024-03-08T08:07:24;99432.75;;;4.00;86.35
44697;BME280;57264;47.480;19.354;2024-03-08T08:09:49;99434.44;;;4.10;87.10
44697;BME280;57264;47.480;19.354;2024-03-08T08:12:14;99431.88;;;4.16;86.54
44697;BME280;57264;47.480;19.354;2024-03-08T08:14:41;99436.16;;;4.11;86.50
44697;BME280;57264;47.480;19.354;2024-03-08T08:17:06;99436.94;;;4.24;85.98
44697;BME280;57264;47.480;19.354;2024-03-08T08:19:34;99436.16;;;4.12;85.77
44697;BME280;57264;47.480;19.354;2024-03-08T08:22:00;99441.34;;;3.97;86.62
44697;BME280;57264;47.480;19.354;2024-03-08T08:24:26;99436.16;;;4.06;86.25
44697;BME280;57264;47.480;19.354;2024-03-08T08:26:52;99438.69;;;4.18;85.88
44697;BME280;57264;47.480;19.354;2024-03-08T08:29:17;99434.34;;;4.34;85.96
44697;BME280;57264;47.480;19.354;2024-03-08T08:31:43;99429.97;;;4.53;85.65
44697;BME280;57264;47.480;19.354;2024-03-08T08:34:09;99428.13;;;4.75;84.46
44697;BME280;57264;47.480;19.354;2024-03-08T08:36:37;99427.19;;;4.85;85.10
44697;BME280;57264;47.480;19.354;2024-03-08T08:39:04;99429.81;;;4.81;83.81
44697;BME280;57264;47.480;19.354;2024-03-08T08:41:33;99435.78;;;4.86;83.75
44697;BME280;57264;47.480;19.354;2024-03-08T08:43:58;99429.84;;;4.76;83.73
44697;BME280;57264;47.480;19.354;2024-03-08T08:46:23;99423.00;;;4.71;84.10
44697;BME280;57264;47.480;19.354;2024-03-08T08:48:49;99431.56;;;4.76;84.52
44697;BME280;57264;47.480;19.354;2024-03-08T08:51:14;99434.09;;;4.83;83.98
44697;BME280;57264;47.480;19.354;2024-03-08T08:53:40;99437.44;;;4.96;84.03
44697;BME280;57264;47.480;19.354;2024-03-08T08:56:08;99427.16;;;4.90;83.77
44697;BME280;57264;47.480;19.354;2024-03-08T08:58:33;99426.28;;;4.96;83.48
44697;BME280;57264;47.480;19.354;2024-03-08T09:00:59;99425.28;;;5.13;83.26
44697;BME280;57264;47.480;19.354;2024-03-08T09:03:24;99438.16;;;5.15;83.72
44697;BME280;57264;47.480;19.354;2024-03-08T09:05:52;99429.69;;;4.94;83.69
44697;BME280;57264;47.480;19.354;2024-03-08T09:08:17;99433.94;;;5.02;83.60
44697;BME280;57264;47.480;19.354;2024-03-08T09:10:43;99433.03;;;5.12;83.04
44697;BME280;57264;47.480;19.354;2024-03-08T09:13:08;99438.00;;;5.33;83.46
44697;BME280;57264;47.480;19.354;2024-03-08T09:15:35;99427.81;;;5.20;82.97
44697;BME280;57264;47.480;19.354;2024-03-08T09:18:01;99432.84;;;5.33;82.90
44697;BME280;57264;47.480;19.354;2024-03-08T09:20:27;99421.44;;;5.57;81.75
44697;BME280;57264;47.480;19.354;2024-03-08T09:22:52;99423.72;;;5.88;80.76
44697;BME280;57264;47.480;19.354;2024-03-08T09:25:18;99421.88;;;6.02;80.37
44697;BME280;57264;47.480;19.354;2024-03-08T09:27:43;99427.50;;;6.35;79.60
44697;BME280;57264;47.480;19.354;2024-03-08T09:30:08;99420.38;;;6.54;78.40
44697;BME280;57264;47.480;19.354;2024-03-08T09:32:34;99428.88;;;6.62;78.30
44697;BME280;57264;47.480;19.354;2024-03-08T09:34:59;99428.22;;;6.45;77.58
44697;BME280;57264;47.480;19.354;2024-03-08T09:37:26;99425.16;;;6.13;78.06
44697;BME280;57264;47.480;19.354;2024-03-08T09:39:51;99430.00;;;6.43;78.99
44697;BME280;57264;47.480;19.354;2024-03-08T09:42:17;99422.34;;;6.33;77.82
44697;BME280;57264;47.480;19.354;2024-03-08T09:44:46;99423.81;;;6.54;78.30
44697;BME280;57264;47.480;19.354;2024-03-08T09:47:14;99423.63;;;6.67;78.20
44697;BME280;57264;47.480;19.354;2024-03-08T09:49:40;99423.63;;;6.67;77.24
44697;BME280;57264;47.480;19.354;2024-03-08T09:52:06;99419.22;;;6.75;77.51
44697;BME280;57264;47.480;19.354;2024-03-08T09:54:31;99424.47;;;6.69;77.48
44697;BME280;57264;47.480;19.354;2024-03-08T09:56:57;99422.47;;;6.89;77.06
44697;BME280;57264;47.480;19.354;2024-03-08T09:59:22;99426.63;;;6.96;77.82
44697;BME280;57264;47.480;19.354;2024-03-08T10:01:50;99428.47;;;6.88;77.12
44697;BME280;57264;47.480;19.354;2024-03-08T10:04:17;99428.34;;;6.99;79.25
44697;BME280;57264;47.480;19.354;2024-03-08T10:06:43;99424.66;;;7.12;76.99
44697;BME280;57264;47.480;19.354;2024-03-08T10:09:09;99428.06;;;7.17;77.08
44697;BME280;57264;47.480;19.354;2024-03-08T10:11:35;99433.69;;;6.85;76.87
44697;BME280;57264;47.480;19.354;2024-03-08T10:14:00;99439.78;;;6.81;79.69
44697;BME280;57264;47.480;19.354;2024-03-08T10:16:30;99442.59;;;6.65;79.17
44697;BME280;57264;47.480;19.354;2024-03-08T10:18:58;99434.19;;;7.08;78.39
44697;BME280;57264;47.480;19.354;2024-03-08T10:21:25;99427.78;;;7.34;77.23
44697;BME280;57264;47.480;19.354;2024-03-08T10:23:51;99439.16;;;7.72;76.86
44697;BME280;57264;47.480;19.354;2024-03-08T10:26:16;99429.00;;;7.62;75.13
44697;BME280;57264;47.480;19.354;2024-03-08T10:28:49;99436.16;;;7.96;74.87
44697;BME280;57264;47.480;19.354;2024-03-08T10:31:15;99420.63;;;7.96;72.95
44697;BME280;57264;47.480;19.354;2024-03-08T10:33:40;99426.31;;;7.69;73.52
44697;BME280;57264;47.480;19.354;2024-03-08T10:36:09;99423.97;;;8.01;74.10
44697;BME280;57264;47.480;19.354;2024-03-08T10:38:35;99426.03;;;7.82;73.55
44697;BME280;57264;47.480;19.354;2024-03-08T10:41:04;99425.91;;;7.90;74.00
44697;BME280;57264;47.480;19.354;2024-03-08T10:43:31;99427.13;;;7.71;73.16
44697;BME280;57264;47.480;19.354;2024-03-08T10:46:12;99419.84;;;7.43;74.75
44697;BME280;57264;47.480;19.354;2024-03-08T10:48:43;99419.34;;;7.23;75.86
44697;BME280;57264;47.480;19.354;2024-03-08T10:51:09;99423.63;;;7.25;76.23
44697;BME280;57264;47.480;19.354;2024-03-08T10:53:36;99429.75;;;7.17;76.46
44697;BME280;57264;47.480;19.354;2024-03-08T10:56:04;99425.72;;;7.00;76.29
44697;BME280;57264;47.480;19.354;2024-03-08T10:58:30;99424.97;;;6.92;77.51
44697;BME280;57264;47.480;19.354;2024-03-08T11:00:57;99425.78;;;6.96;78.07
44697;BME280;57264;47.480;19.354;2024-03-08T11:08:40;99426.56;;;7.02;78.47
44697;BME280;57264;47.480;19.354;2024-03-08T11:11:05;99418.66;;;7.13;77.22
44697;BME280;57264;47.480;19.354;2024-03-08T11:13:40;99417.44;;;7.32;78.67
44697;BME280;57264;47.480;19.354;2024-03-08T11:16:13;99418.66;;;7.62;78.22
44697;BME280;57264;47.480;19.354;2024-03-08T11:21:35;99414.56;;;7.51;76.37
44697;BME280;57264;47.480;19.354;2024-03-08T11:24:08;99411.06;;;7.52;76.53
44697;BME280;57264;47.480;19.354;2024-03-08T11:26:36;99406.16;;;7.86;75.91
44697;BME280;57264;47.480;19.354;2024-03-08T11:31:46;99395.78;;;8.29;73.02
44697;BME280;57264;47.480;19.354;2024-03-08T11:34:15;99402.81;;;8.24;71.67
44697;BME280;57264;47.480;19.354;2024-03-08T11:36:41;99397.94;;;8.09;72.08
44697;BME280;57264;47.480;19.354;2024-03-08T11:39:07;99396.84;;;7.76;73.22
44697;BME280;57264;47.480;19.354;2024-03-08T11:41:39;99393.28;;;7.36;73.66
44697;BME280;57264;47.480;19.354;2024-03-08T11:44:06;99402.03;;;7.28;74.97
44697;BME280;57264;47.480;19.354;2024-03-08T11:46:32;99389.53;;;7.02;74.55
44697;BME280;57264;47.480;19.354;2024-03-08T11:48:59;99400.72;;;7.02;75.42
44697;BME280;57264;47.480;19.354;2024-03-08T11:51:25;99393.88;;;7.01;76.33
44697;BME280;57264;47.480;19.354;2024-03-08T11:53:50;99392.25;;;6.94;76.49
44697;BME280;57264;47.480;19.354;2024-03-08T11:56:16;99393.06;;;6.98;76.92
44697;BME280;57264;47.480;19.354;2024-03-08T11:58:41;99388.81;;;6.92;77.38
44697;BME280;57264;47.480;19.354;2024-03-08T12:01:08;99388.84;;;6.90;78.16
44697;BME280;57264;47.480;19.354;2024-03-08T12:03:42;99390.66;;;6.84;78.52
44697;BME280;57264;47.480;19.354;2024-03-08T12:06:20;99391.00;;;6.62;79.09
44697;BME280;57264;47.480;19.354;2024-03-08T12:08:45;99390.63;;;6.27;79.85
44697;BME280;57264;47.480;19.354;2024-03-08T12:11:14;99386.41;;;6.20;79.46
44697;BME280;57264;47.480;19.354;2024-03-08T12:13:39;99391.56;;;6.20;79.58
44697;BME280;57264;47.480;19.354;2024-03-08T12:16:05;99386.22;;;6.33;80.86
44697;BME280;57264;47.480;19.354;2024-03-08T12:18:34;99379.38;;;6.34;79.50
44697;BME280;57264;47.480;19.354;2024-03-08T12:23:35;99382.13;;;6.17;79.34
44697;BME280;57264;47.480;19.354;2024-03-08T12:26:14;99381.28;;;6.16;80.29
44697;BME280;57264;47.480;19.354;2024-03-08T12:28:41;99385.41;;;6.31;80.47
44697;BME280;57264;47.480;19.354;2024-03-08T12:31:07;99381.97;;;6.31;79.22
44697;BME280;57264;47.480;19.354;2024-03-08T12:33:36;99380.97;;;6.41;79.67
44697;BME280;57264;47.480;19.354;2024-03-08T12:36:01;99385.00;;;6.62;78.97
44697;BME280;57264;47.480;19.354;2024-03-08T12:38:30;99382.53;;;6.53;79.27
44697;BME280;57264;47.480;19.354;2024-03-08T12:40:59;99382.69;;;6.42;78.88
44697;BME280;57264;47.480;19.354;2024-03-08T12:43:25;99375.72;;;6.47;78.73
44697;BME280;57264;47.480;19.354;2024-03-08T12:45:51;99373.19;;;6.46;79.03
44697;BME280;57264;47.480;19.354;2024-03-08T12:48:16;99377.41;;;6.51;79.00
44697;BME280;57264;47.480;19.354;2024-03-08T12:50:42;99373.00;;;6.58;78.16
44697;BME280;57264;47.480;19.354;2024-03-08T12:53:12;99375.13;;;6.30;79.74
44697;BME280;57264;47.480;19.354;2024-03-08T12:55:38;99370.94;;;6.20;80.57
44697;BME280;57264;47.480;19.354;2024-03-08T12:58:04;99371.25;;;5.94;80.80
44697;BME280;57264;47.480;19.354;2024-03-08T13:00:29;99370.28;;;6.04;81.32
44697;BME280;57264;47.480;19.354;2024-03-08T13:02:54;99366.56;;;6.26;80.52
44697;BME280;57264;47.480;19.354;2024-03-08T13:05:20;99366.44;;;6.35;80.38
44697;BME280;57264;47.480;19.354;2024-03-08T13:07:46;99367.94;;;6.50;79.91
44697;BME280;57264;47.480;19.354;2024-03-08T13:10:14;99367.84;;;6.56;79.27